createdAt,value
2019-02-09T00:04:48.906Z,76.81
2019-02-09T00:09:52.412Z,77.86
2019-02-09T00:14:55.932Z,78.51
2019-02-09T00:19:59.711Z,86.52
2019-02-09T00:25:03.888Z,92.90
2019-02-09T00:30:15.861Z,98.17
2019-02-09T00:35:20.514Z,100.00
2019-02-09T00:40:28.844Z,100.00
2019-02-09T00:45:32.291Z,100.00
2019-02-09T00:50:35.733Z,100.00
2019-02-09T00:55:39.175Z,100.00
2019-02-09T01:00:42.834Z,100.00
2019-02-09T01:05:46.935Z,100.00
2019-02-09T01:10:50.354Z,100.00
2019-02-09T01:15:53.849Z,100.00
2019-02-09T01:20:57.267Z,100.00
2019-02-09T01:26:00.797Z,100.00
2019-02-09T01:31:04.395Z,100.00
2019-02-09T01:36:07.858Z,100.00
2019-02-09T01:41:11.264Z,100.00
2019-02-09T01:46:14.779Z,100.00
2019-02-09T01:51:18.203Z,100.00
2019-02-09T01:56:21.623Z,100.00
2019-02-09T02:01:25.200Z,100.00
2019-02-09T02:06:28.640Z,100.00
2019-02-09T02:11:32.207Z,100.00
2019-02-09T02:16:35.618Z,100.00
2019-02-09T02:21:39.103Z,100.00
2019-02-09T02:26:42.534Z,100.00
2019-02-09T02:31:46.053Z,100.00
2019-02-09T02:36:49.482Z,100.00
2019-02-09T02:41:52.899Z,100.00
2019-02-09T02:46:56.318Z,100.00
2019-02-09T02:51:59.784Z,100.00
2019-02-09T02:57:03.219Z,100.00
2019-02-09T03:02:06.665Z,100.00
2019-02-09T03:07:10.112Z,100.00
2019-02-09T03:12:13.528Z,100.00
2019-02-09T03:17:16.961Z,100.00
2019-02-09T03:22:20.376Z,100.00
2019-02-09T03:27:23.784Z,100.00
2019-02-09T03:32:27.269Z,100.00
2019-02-09T03:37:30.758Z,100.00
2019-02-09T03:42:34.178Z,100.00
2019-02-09T03:47:37.600Z,100.00
2019-02-09T03:52:41.033Z,100.00
2019-02-09T03:57:44.473Z,100.00
2019-02-09T04:02:48.420Z,100.00
2019-02-09T04:07:52.115Z,100.00
2019-02-09T04:18:59.664Z,100.00
2019-02-09T04:24:03.091Z,100.00
2019-02-09T04:29:06.562Z,100.00
2019-02-09T04:34:10.144Z,100.00
2019-02-09T04:39:13.560Z,100.00
2019-02-09T04:44:16.975Z,100.00
2019-02-09T04:49:20.397Z,100.00
2019-02-09T04:54:23.839Z,100.00
2019-02-09T04:59:27.318Z,100.00
2019-02-09T05:04:30.764Z,100.00
2019-02-09T05:09:34.164Z,100.00
2019-02-09T05:14:37.602Z,100.00
2019-02-09T05:19:41.030Z,100.00
2019-02-09T05:24:44.492Z,100.00
2019-02-09T05:29:47.947Z,98.25
2019-02-09T05:34:51.374Z,98.33
2019-02-09T05:39:54.781Z,95.31
2019-02-09T05:44:58.201Z,94.81
2019-02-09T05:50:01.614Z,94.43
2019-02-09T05:55:07.054Z,94.91
2019-02-09T06:00:26.616Z,92.78
2019-02-09T06:05:30.058Z,91.58
2019-02-09T06:10:33.548Z,91.24
2019-02-09T06:15:36.965Z,93.13
2019-02-09T06:20:40.391Z,93.86
2019-02-09T06:25:43.810Z,94.74
2019-02-09T06:30:47.225Z,95.80
2019-02-09T06:35:50.634Z,96.78
2019-02-09T06:40:54.059Z,95.71
2019-02-09T06:45:57.480Z,95.42
2019-02-09T06:51:02.091Z,93.98
2019-02-09T06:56:06.015Z,91.86
2019-02-09T07:01:09.430Z,91.59
2019-02-09T07:06:12.906Z,89.19
2019-02-09T07:11:16.396Z,88.56
2019-02-09T07:16:19.794Z,87.60
2019-02-09T07:21:23.210Z,87.42
2019-02-09T07:26:26.615Z,87.18
2019-02-09T07:31:30.185Z,86.38
2019-02-09T07:36:33.591Z,84.51
2019-02-09T07:41:36.989Z,83.15
2019-02-09T07:46:40.409Z,83.42
2019-02-09T07:51:43.968Z,84.46
2019-02-09T07:56:47.320Z,83.46
2019-02-09T08:01:50.740Z,83.65
2019-02-09T08:06:54.154Z,83.97
2019-02-09T08:11:57.558Z,85.13
2019-02-09T08:17:01.031Z,83.36
2019-02-09T08:22:04.611Z,80.24
2019-02-09T08:27:08.012Z,81.13
2019-02-09T08:32:13.003Z,82.19
2019-02-09T08:37:16.683Z,80.16
2019-02-09T08:42:20.135Z,81.03
2019-02-09T08:47:23.606Z,80.50
2019-02-09T08:52:27.035Z,80.26
2019-02-09T08:57:30.458Z,81.67
2019-02-09T09:02:33.899Z,80.87
2019-02-09T09:07:37.380Z,79.98
2019-02-09T09:12:40.808Z,79.53
2019-02-09T09:17:44.233Z,79.54
2019-02-09T09:22:47.725Z,78.42
2019-02-09T09:27:51.308Z,77.59
2019-02-09T09:32:54.782Z,76.20
2019-02-09T09:37:58.432Z,76.06
2019-02-09T09:43:01.863Z,75.96
2019-02-09T09:48:07.614Z,75.72
2019-02-09T09:53:11.157Z,76.07
2019-02-09T09:58:14.721Z,72.33
2019-02-09T10:03:18.301Z,69.55
2019-02-09T10:08:21.781Z,70.16
2019-02-09T10:13:25.301Z,69.16
2019-02-09T10:18:28.715Z,68.28
2019-02-09T10:23:32.141Z,69.89
2019-02-09T10:28:35.683Z,69.46
2019-02-09T10:33:39.093Z,69.78
2019-02-09T10:38:42.531Z,70.01
2019-02-09T10:43:46.019Z,69.20
2019-02-09T10:48:49.440Z,68.80
2019-02-09T10:53:52.881Z,67.07
2019-02-09T10:58:56.302Z,66.13
2019-02-09T11:03:59.740Z,64.20
2019-02-09T11:09:04.877Z,64.74
2019-02-09T11:14:08.388Z,64.19
2019-02-09T11:19:11.812Z,62.19
2019-02-09T11:24:15.333Z,62.80
2019-02-09T11:29:18.792Z,62.93
2019-02-09T11:34:22.213Z,63.41
2019-02-09T11:39:25.700Z,63.70
2019-02-09T11:44:29.114Z,63.30
2019-02-09T11:49:32.747Z,62.04
2019-02-09T11:54:36.174Z,61.79
2019-02-09T11:59:39.606Z,61.73
2019-02-09T12:04:43.070Z,62.64
2019-02-09T12:09:46.531Z,63.21
2019-02-09T12:14:49.968Z,63.49
2019-02-09T12:19:53.463Z,62.66
2019-02-09T12:24:56.883Z,63.51
2019-02-09T12:30:00.318Z,62.97
2019-02-09T12:35:05.548Z,63.80
2019-02-09T12:40:14.982Z,64.65
2019-02-09T12:45:20.529Z,62.96
2019-02-09T12:50:26.257Z,61.87
2019-02-09T12:55:29.745Z,60.63
2019-02-09T13:00:35.117Z,60.52
2019-02-09T13:05:38.571Z,58.26
2019-02-09T13:10:41.950Z,58.82
2019-02-09T13:15:45.450Z,58.02
2019-02-09T13:20:48.865Z,57.22
2019-02-09T13:25:52.321Z,58.49
2019-02-09T13:30:55.835Z,57.30
2019-02-09T13:35:59.457Z,58.78
2019-02-09T13:41:02.892Z,65.50
2019-02-09T13:46:06.485Z,68.88
2019-02-09T13:51:09.925Z,72.36
2019-02-09T13:56:13.352Z,71.90
2019-02-09T14:01:16.853Z,72.00
2019-02-09T14:06:20.271Z,71.28
2019-02-09T14:11:23.714Z,71.19
2019-02-09T14:16:27.167Z,71.05
2019-02-09T14:21:30.581Z,71.03
2019-02-09T14:26:34.016Z,69.62
2019-02-09T14:31:37.441Z,67.92
2019-02-09T14:36:40.873Z,69.17
2019-02-09T14:41:44.372Z,68.18
2019-02-09T14:46:47.799Z,66.91
2019-02-09T14:51:51.230Z,67.20
2019-02-09T14:56:54.662Z,68.04
2019-02-09T15:01:58.114Z,68.19
2019-02-09T15:07:01.588Z,68.37
2019-02-09T15:12:05.320Z,67.39
2019-02-09T15:17:08.714Z,68.05
2019-02-09T15:22:12.276Z,67.67
2019-02-09T15:27:15.940Z,66.66
2019-02-09T15:32:20.227Z,67.62
2019-02-09T15:37:23.633Z,67.71
2019-02-09T15:42:27.053Z,65.28
2019-02-09T15:47:30.556Z,64.79
2019-02-09T15:52:34.077Z,65.51
2019-02-09T15:57:37.472Z,65.88
2019-02-09T16:02:40.883Z,68.01
2019-02-09T16:07:44.293Z,69.13
2019-02-09T16:12:47.790Z,70.17
2019-02-09T16:17:51.229Z,71.18
2019-02-09T16:22:54.729Z,72.20
2019-02-09T16:27:58.203Z,72.88
2019-02-09T16:33:01.672Z,72.95
2019-02-09T16:38:05.743Z,73.70
2019-02-09T16:43:09.170Z,74.33
2019-02-09T16:48:12.608Z,75.50
2019-02-09T16:53:16.066Z,76.27
2019-02-09T16:58:19.469Z,77.54
2019-02-09T17:03:22.880Z,77.62
2019-02-09T17:08:26.318Z,77.44
2019-02-09T17:13:29.720Z,77.55
2019-02-09T17:18:33.159Z,77.89
2019-02-09T17:23:36.582Z,77.46
2019-02-09T17:28:40.016Z,77.78
2019-02-09T17:33:43.435Z,77.72
2019-02-09T17:38:46.836Z,77.75
2019-02-09T17:43:50.241Z,77.91
2019-02-09T17:48:53.674Z,77.83
2019-02-09T17:53:57.190Z,78.00
2019-02-09T17:59:00.598Z,78.44
2019-02-09T18:04:04.090Z,78.78
2019-02-09T18:09:07.842Z,78.09
2019-02-09T18:14:11.271Z,78.04
2019-02-09T18:19:14.720Z,77.13
2019-02-09T18:24:18.142Z,76.64
2019-02-09T18:29:21.546Z,76.35
2019-02-09T18:34:24.985Z,76.67
2019-02-09T18:39:28.411Z,76.58
2019-02-09T18:44:31.833Z,76.84
2019-02-09T18:49:35.322Z,77.45
2019-02-09T18:54:38.791Z,77.13
2019-02-09T18:59:42.235Z,76.85
2019-02-09T19:04:45.632Z,77.26
2019-02-09T19:09:49.056Z,76.35
2019-02-09T19:14:52.488Z,76.33
2019-02-09T19:19:55.901Z,77.35
2019-02-09T19:24:59.318Z,77.21
2019-02-09T19:30:02.852Z,77.63
2019-02-09T19:35:12.042Z,77.35
2019-02-09T19:40:15.983Z,78.89
2019-02-09T19:45:21.830Z,78.32
2019-02-09T19:50:25.296Z,78.53
2019-02-09T19:55:33.279Z,78.46
2019-02-09T20:00:39.810Z,77.75
2019-02-09T20:05:43.252Z,77.86
2019-02-09T20:10:46.659Z,77.68
2019-02-09T20:15:50.180Z,77.51
2019-02-09T20:20:53.598Z,77.05
2019-02-09T20:25:57.032Z,77.17
2019-02-09T20:31:00.567Z,77.05
2019-02-09T20:36:04.372Z,77.44
2019-02-09T20:41:08.020Z,76.83
2019-02-09T20:46:11.491Z,77.01
2019-02-09T20:51:14.898Z,77.46
2019-02-09T20:56:20.321Z,77.51
2019-02-09T21:01:23.871Z,77.57
2019-02-09T21:06:27.373Z,77.73
2019-02-09T21:11:30.821Z,78.15
2019-02-09T21:16:35.549Z,78.48
2019-02-09T21:21:38.974Z,78.57
2019-02-09T21:26:42.420Z,80.02
2019-02-09T21:31:45.915Z,79.15
2019-02-09T21:36:49.327Z,79.13
2019-02-09T21:41:52.745Z,80.10
2019-02-09T21:46:56.390Z,79.84
2019-02-09T21:51:59.811Z,79.67
2019-02-09T21:57:03.344Z,79.87
2019-02-09T22:02:07.196Z,80.50
2019-02-09T22:07:10.727Z,80.53
2019-02-09T22:12:14.346Z,80.20
2019-02-09T22:17:18.017Z,79.80
2019-02-09T22:22:21.461Z,79.31
2019-02-09T22:27:24.911Z,79.52
2019-02-09T22:32:28.335Z,79.55
2019-02-09T22:37:31.927Z,79.73
2019-02-09T22:42:35.317Z,79.01
2019-02-09T22:47:38.769Z,79.57
2019-02-09T22:52:42.244Z,80.23
2019-02-09T22:57:45.766Z,80.23
2019-02-09T23:02:49.258Z,79.79
2019-02-09T23:07:52.770Z,79.78
2019-02-09T23:12:56.182Z,79.89
2019-02-09T23:17:59.668Z,78.80
2019-02-09T23:23:03.168Z,78.73
2019-02-09T23:28:06.686Z,78.76
2019-02-09T23:33:10.114Z,79.02
2019-02-09T23:38:13.533Z,79.53
2019-02-09T23:43:16.986Z,79.78
2019-02-09T23:48:20.380Z,80.68
2019-02-09T23:53:23.858Z,81.22
2019-02-09T23:58:27.320Z,80.70
